EmailTwitter


Observations de surface / Québec / CYMX

Régions: Québec | Canada | États-Unis | Europe | France | UK | Ailleurs
Station
Affichage
Infos & localisation pour CYMX | Aide pour décoder les METARs

Observations prises le 2017-11-19 à 19H00 UTC à MONTREAL MIRABEL, QB (CYMX)

Etat du ciel: couvert.

Température: -2.0 Celsius

Point de rosée: -5.0 Celsius

Humidité relative: 80%

Facteur vent: -8.

Facteur vent (rafales): -9.

Vents: Ouest à 19 km/h ou 10 noeuds.

Rafale du vent: 31 km/h ou 17 noeuds.

Pression au niveau moyen de la mer: 99.53 kilopascals.

Calage altimétrique: 99.46 kilopascals ou 29.37 pouces de mercure.

Visibilité horizontale: 25.00 milles terrestres ou 40.00 kilomètres.

Hauteur du plafond: 823 mètres ( 2700 pieds ).

Observation METAR:

CYMX 191900Z 27010G17KT 240V340 25SM FEW020 BKN027 OVC035 M02/M05 A2937 RMK

CF1SC7SC1 CF TR SLP953=